sensor_id;sensor_type;location;lat;lon;timestamp;pressure;altitude;pressure_sealevel;temperature;humidity
48624;BME280;34422;45.802;16.114;2022-07-05T00:00:50;100075.22;;;23.05;73.76
48624;BME280;34422;45.802;16.114;2022-07-05T00:03:16;100082.22;;;22.97;74.73
48624;BME280;34422;45.802;16.114;2022-07-05T00:05:43;100082.63;;;22.91;75.66
48624;BME280;34422;45.802;16.114;2022-07-05T00:08:10;100092.91;;;22.85;76.21
48624;BME280;34422;45.802;16.114;2022-07-05T00:10:37;100095.75;;;22.80;76.95
48624;BME280;34422;45.802;16.114;2022-07-05T00:13:05;100109.00;;;22.78;77.13
48624;BME280;34422;45.802;16.114;2022-07-05T00:15:32;100118.41;;;22.77;77.39
48624;BME280;34422;45.802;16.114;2022-07-05T00:17:59;100124.75;;;22.78;77.50
48624;BME280;34422;45.802;16.114;2022-07-05T00:20:26;100125.56;;;22.78;77.56
48624;BME280;34422;45.802;16.114;2022-07-05T00:22:52;100113.16;;;22.76;78.01
48624;BME280;34422;45.802;16.114;2022-07-05T00:25:19;100117.03;;;22.75;78.20
48624;BME280;34422;45.802;16.114;2022-07-05T00:27:46;100134.41;;;22.75;78.34
48624;BME280;34422;45.802;16.114;2022-07-05T00:30:13;100155.94;;;22.73;78.52
48624;BME280;34422;45.802;16.114;2022-07-05T00:32:40;100192.31;;;22.75;78.80
48624;BME280;34422;45.802;16.114;2022-07-05T00:35:08;100236.97;;;22.82;78.69
48624;BME280;34422;45.802;16.114;2022-07-05T00:37:35;100264.44;;;22.92;77.09
48624;BME280;34422;45.802;16.114;2022-07-05T00:40:03;100265.38;;;23.07;75.68
48624;BME280;34422;45.802;16.114;2022-07-05T00:42:30;100265.81;;;23.14;75.19
48624;BME280;34422;45.802;16.114;2022-07-05T00:44:56;100244.78;;;23.18;75.10
48624;BME280;34422;45.802;16.114;2022-07-05T00:47:23;100215.38;;;23.27;75.00
48624;BME280;34422;45.802;16.114;2022-07-05T00:49:50;100203.06;;;23.38;74.45
48624;BME280;34422;45.802;16.114;2022-07-05T00:52:17;100198.06;;;23.40;74.34
48624;BME280;34422;45.802;16.114;2022-07-05T00:54:44;100187.84;;;23.40;73.76
48624;BME280;34422;45.802;16.114;2022-07-05T00:57:11;100188.44;;;23.37;75.15
48624;BME280;34422;45.802;16.114;2022-07-05T00:59:37;100182.91;;;23.37;74.19
48624;BME280;34422;45.802;16.114;2022-07-05T01:02:04;100179.66;;;23.35;74.46
48624;BME280;34422;45.802;16.114;2022-07-05T01:04:31;100170.03;;;23.33;74.86
48624;BME280;34422;45.802;16.114;2022-07-05T01:06:58;100155.25;;;23.24;75.39
48624;BME280;34422;45.802;16.114;2022-07-05T01:09:26;100156.69;;;23.21;74.95
48624;BME280;34422;45.802;16.114;2022-07-05T01:11:53;100149.28;;;23.17;75.18
48624;BME280;34422;45.802;16.114;2022-07-05T01:14:22;100141.69;;;23.09;75.39
48624;BME280;34422;45.802;16.114;2022-07-05T01:16:50;100134.59;;;23.02;75.13
48624;BME280;34422;45.802;16.114;2022-07-05T01:19:17;100131.84;;;23.02;74.38
48624;BME280;34422;45.802;16.114;2022-07-05T01:21:47;100136.78;;;23.06;73.99
48624;BME280;34422;45.802;16.114;2022-07-05T01:24:16;100134.31;;;23.04;73.77
48624;BME280;34422;45.802;16.114;2022-07-05T01:26:49;100139.81;;;23.04;72.79
48624;BME280;34422;45.802;16.114;2022-07-05T01:29:16;100139.00;;;23.03;72.88
48624;BME280;34422;45.802;16.114;2022-07-05T01:31:44;100144.53;;;23.03;73.14
48624;BME280;34422;45.802;16.114;2022-07-05T01:34:11;100140.66;;;23.04;73.37
48624;BME280;34422;45.802;16.114;2022-07-05T01:36:38;100144.53;;;23.03;73.58
48624;BME280;34422;45.802;16.114;2022-07-05T01:39:07;100149.44;;;23.07;73.86
48624;BME280;34422;45.802;16.114;2022-07-05T01:41:36;100148.94;;;23.04;74.45
48624;BME280;34422;45.802;16.114;2022-07-05T01:44:03;100149.50;;;23.01;74.37
48624;BME280;34422;45.802;16.114;2022-07-05T01:46:32;100152.81;;;23.03;75.08
48624;BME280;34422;45.802;16.114;2022-07-05T01:49:06;100184.22;;;23.08;75.55
48624;BME280;34422;45.802;16.114;2022-07-05T01:51:37;100229.91;;;22.95;77.75
48624;BME280;34422;45.802;16.114;2022-07-05T01:54:05;100264.88;;;22.76;80.57
48624;BME280;34422;45.802;16.114;2022-07-05T01:56:32;100285.00;;;22.52;84.03
48624;BME280;34422;45.802;16.114;2022-07-05T01:58:59;100292.44;;;22.52;84.57
48624;BME280;34422;45.802;16.114;2022-07-05T02:01:46;100291.91;;;22.74;81.92
48624;BME280;34422;45.802;16.114;2022-07-05T02:04:13;100295.81;;;22.96;80.70
48624;BME280;34422;45.802;16.114;2022-07-05T02:06:40;100269.28;;;23.00;84.07
48624;BME280;34422;45.802;16.114;2022-07-05T02:09:07;100210.00;;;22.74;85.68
48624;BME280;34422;45.802;16.114;2022-07-05T02:11:35;100119.59;;;22.23;95.70
48624;BME280;34422;45.802;16.114;2022-07-05T02:14:03;100070.31;;;21.35;100.00
48624;BME280;34422;45.802;16.114;2022-07-05T02:16:31;100059.19;;;20.77;100.00
48624;BME280;34422;45.802;16.114;2022-07-05T02:18:58;100040.88;;;20.63;100.00
48624;BME280;34422;45.802;16.114;2022-07-05T02:21:25;100029.09;;;20.52;100.00
48624;BME280;34422;45.802;16.114;2022-07-05T02:23:52;100031.34;;;20.45;100.00
48624;BME280;34422;45.802;16.114;2022-07-05T02:26:19;100045.66;;;20.42;100.00
48624;BME280;34422;45.802;16.114;2022-07-05T02:28:46;100067.91;;;20.40;100.00
48624;BME280;34422;45.802;16.114;2022-07-05T02:31:15;100087.41;;;20.44;100.00
48624;BME280;34422;45.802;16.114;2022-07-05T02:33:43;100097.34;;;20.30;100.00
48624;BME280;34422;45.802;16.114;2022-07-05T02:36:13;100109.41;;;20.34;100.00
48624;BME280;34422;45.802;16.114;2022-07-05T02:38:40;100118.47;;;20.39;100.00
48624;BME280;34422;45.802;16.114;2022-07-05T02:41:08;100127.00;;;20.38;100.00
48624;BME280;34422;45.802;16.114;2022-07-05T02:43:37;100129.22;;;20.36;100.00
48624;BME280;34422;45.802;16.114;2022-07-05T02:46:05;100136.91;;;20.34;100.00
48624;BME280;34422;45.802;16.114;2022-07-05T02:48:42;100120.13;;;20.30;100.00
48624;BME280;34422;45.802;16.114;2022-07-05T02:51:18;100108.31;;;20.30;100.00
48624;BME280;34422;45.802;16.114;2022-07-05T02:53:45;100091.28;;;20.28;100.00
48624;BME280;34422;45.802;16.114;2022-07-05T02:56:12;100081.41;;;20.27;100.00
48624;BME280;34422;45.802;16.114;2022-07-05T02:58:38;100077.56;;;20.28;100.00
48624;BME280;34422;45.802;16.114;2022-07-05T03:01:05;100076.72;;;20.27;100.00
48624;BME280;34422;45.802;16.114;2022-07-05T03:03:32;100067.38;;;20.28;100.00
48624;BME280;34422;45.802;16.114;2022-07-05T03:05:58;100075.09;;;20.26;100.00
48624;BME280;34422;45.802;16.114;2022-07-05T03:08:25;100070.97;;;20.23;100.00
48624;BME280;34422;45.802;16.114;2022-07-05T03:10:52;100076.47;;;20.23;100.00
48624;BME280;34422;45.802;16.114;2022-07-05T03:13:19;100070.97;;;20.23;100.00
48624;BME280;34422;45.802;16.114;2022-07-05T03:15:45;100076.47;;;20.23;100.00
48624;BME280;34422;45.802;16.114;2022-07-05T03:18:12;100075.91;;;20.27;100.00
48624;BME280;34422;45.802;16.114;2022-07-05T03:20:39;100075.34;;;20.30;100.00
48624;BME280;34422;45.802;16.114;2022-07-05T03:23:05;100077.53;;;20.38;100.00
48624;BME280;34422;45.802;16.114;2022-07-05T03:25:32;100087.13;;;20.45;100.00
48624;BME280;34422;45.802;16.114;2022-07-05T03:27:59;100080.81;;;20.40;100.00
48624;BME280;34422;45.802;16.114;2022-07-05T03:30:26;100090.50;;;20.22;100.00
48624;BME280;34422;45.802;16.114;2022-07-05T03:32:53;100101.19;;;20.23;100.00
48624;BME280;34422;45.802;16.114;2022-07-05T03:35:23;100098.44;;;20.23;100.00
48624;BME280;34422;45.802;16.114;2022-07-05T03:37:49;100108.34;;;20.24;100.00
48624;BME280;34422;45.802;16.114;2022-07-05T03:40:19;100111.13;;;20.19;100.00
48624;BME280;34422;45.802;16.114;2022-07-05T03:42:46;100113.31;;;20.22;100.00
48624;BME280;34422;45.802;16.114;2022-07-05T03:45:16;100119.91;;;20.16;100.00
48624;BME280;34422;45.802;16.114;2022-07-05T03:47:43;100124.31;;;20.22;100.00
48624;BME280;34422;45.802;16.114;2022-07-05T03:50:10;100120.97;;;20.31;100.00
48624;BME280;34422;45.802;16.114;2022-07-05T03:52:36;100122.88;;;20.35;100.00
48624;BME280;34422;45.802;16.114;2022-07-05T03:55:03;100109.41;;;20.39;100.00
48624;BME280;34422;45.802;16.114;2022-07-05T03:57:31;100118.75;;;20.43;100.00
48624;BME280;34422;45.802;16.114;2022-07-05T03:59:58;100116.53;;;20.45;100.00
48624;BME280;34422;45.802;16.114;2022-07-05T04:02:25;100126.97;;;20.48;100.00
48624;BME280;34422;45.802;16.114;2022-07-05T04:04:52;100138.47;;;20.55;100.00
48624;BME280;34422;45.802;16.114;2022-07-05T04:07:18;100134.06;;;20.59;100.00
48624;BME280;34422;45.802;16.114;2022-07-05T04:09:45;100137.38;;;20.51;100.00
48624;BME280;34422;45.802;16.114;2022-07-05T04:12:13;100140.19;;;20.26;100.00
48624;BME280;34422;45.802;16.114;2022-07-05T04:14:43;100141.34;;;20.14;100.00
48624;BME280;34422;45.802;16.114;2022-07-05T04:17:11;100146.28;;;20.12;100.00
48624;BME280;34422;45.802;16.114;2022-07-05T04:19:40;100156.72;;;20.15;100.00
48624;BME280;34422;45.802;16.114;2022-07-05T04:22:07;100166.06;;;20.14;100.00
48624;BME280;34422;45.802;16.114;2022-07-05T04:24:33;100166.06;;;20.14;100.00
48624;BME280;34422;45.802;16.114;2022-07-05T04:27:20;100172.69;;;20.08;100.00
48624;BME280;34422;45.802;16.114;2022-07-05T04:29:47;100173.22;;;20.15;100.00
48624;BME280;34422;45.802;16.114;2022-07-05T04:32:13;100172.66;;;20.18;100.00
48624;BME280;34422;45.802;16.114;2022-07-05T04:34:40;100171.53;;;20.24;100.00
48624;BME280;34422;45.802;16.114;2022-07-05T04:37:07;100174.81;;;20.27;100.00
48624;BME280;34422;45.802;16.114;2022-07-05T04:39:34;100167.13;;;20.23;100.00
48624;BME280;34422;45.802;16.114;2022-07-05T04:42:01;100165.47;;;20.28;100.00
48624;BME280;34422;45.802;16.114;2022-07-05T04:44:28;100183.06;;;20.37;100.00
48624;BME280;34422;45.802;16.114;2022-07-05T04:46:54;100191.84;;;20.34;100.00
48624;BME280;34422;45.802;16.114;2022-07-05T04:49:21;100184.16;;;20.26;100.00
48624;BME280;34422;45.802;16.114;2022-07-05T04:51:47;100179.50;;;20.26;100.00
48624;BME280;34422;45.802;16.114;2022-07-05T04:54:14;100187.47;;;20.28;100.00
48624;BME280;34422;45.802;16.114;2022-07-05T04:56:42;100179.22;;;20.33;100.00
48624;BME280;34422;45.802;16.114;2022-07-05T04:59:09;100179.75;;;20.45;100.00
48624;BME280;34422;45.802;16.114;2022-07-05T05:01:36;100174.25;;;20.50;100.00
48624;BME280;34422;45.802;16.114;2022-07-05T05:04:03;100195.09;;;20.56;100.00
48624;BME280;34422;45.802;16.114;2022-07-05T05:06:29;100193.69;;;20.69;100.00
48624;BME280;34422;45.802;16.114;2022-07-05T05:08:56;100206.56;;;20.83;100.00
48624;BME280;34422;45.802;16.114;2022-07-05T05:11:23;100210.94;;;20.89;100.00
48624;BME280;34422;45.802;16.114;2022-07-05T05:13:51;100204.28;;;20.96;100.00
48624;BME280;34422;45.802;16.114;2022-07-05T05:16:18;100207.50;;;21.13;100.00
48624;BME280;34422;45.802;16.114;2022-07-05T05:18:46;100209.13;;;21.24;100.00
48624;BME280;34422;45.802;16.114;2022-07-05T05:21:12;100224.47;;;21.35;100.00
48624;BME280;34422;45.802;16.114;2022-07-05T05:23:39;100228.09;;;21.31;100.00
48624;BME280;34422;45.802;16.114;2022-07-05T05:26:07;100235.00;;;21.18;100.00
48624;BME280;34422;45.802;16.114;2022-07-05T05:28:34;100251.53;;;21.08;100.00
48624;BME280;34422;45.802;16.114;2022-07-05T05:31:01;100251.81;;;21.06;100.00
48624;BME280;34422;45.802;16.114;2022-07-05T05:33:27;100244.44;;;20.97;100.00
48624;BME280;34422;45.802;16.114;2022-07-05T05:35:54;100251.53;;;21.08;100.00
48624;BME280;34422;45.802;16.114;2022-07-05T05:38:21;100254.81;;;21.15;100.00
48624;BME280;34422;45.802;16.114;2022-07-05T05:40:51;100246.75;;;21.39;100.00
48624;BME280;34422;45.802;16.114;2022-07-05T05:43:17;100243.72;;;21.74;100.00
48624;BME280;34422;45.802;16.114;2022-07-05T05:45:44;100247.47;;;21.88;100.00
48624;BME280;34422;45.802;16.114;2022-07-05T05:48:11;100248.47;;;21.69;100.00
48624;BME280;34422;45.802;16.114;2022-07-05T05:50:38;100259.44;;;21.74;100.00
48624;BME280;34422;45.802;16.114;2022-07-05T05:53:07;100259.50;;;21.63;100.00
48624;BME280;34422;45.802;16.114;2022-07-05T05:55:34;100261.13;;;21.70;100.00
48624;BME280;34422;45.802;16.114;2022-07-05T06:00:42;100242.66;;;22.09;100.00
48624;BME280;34422;45.802;16.114;2022-07-05T06:03:09;100236.28;;;21.80;100.00
48624;BME280;34422;45.802;16.114;2022-07-05T06:05:36;100226.13;;;22.38;100.00
48624;BME280;34422;45.802;16.114;2022-07-05T06:08:03;100233.41;;;22.53;100.00
48624;BME280;34422;45.802;16.114;2022-07-05T06:10:31;100239.06;;;22.90;100.00
48624;BME280;34422;45.802;16.114;2022-07-05T06:13:00;100247.69;;;22.84;100.00
48624;BME280;34422;45.802;16.114;2022-07-05T06:15:28;100249.59;;;23.68;100.00
48624;BME280;34422;45.802;16.114;2022-07-05T06:17:54;100252.78;;;23.19;100.00
48624;BME280;34422;45.802;16.114;2022-07-05T06:20:24;100250.31;;;23.18;100.00
48624;BME280;34422;45.802;16.114;2022-07-05T06:22:52;100249.09;;;23.24;100.00
48624;BME280;34422;45.802;16.114;2022-07-05T06:25:19;100260.06;;;23.10;100.00
48624;BME280;34422;45.802;16.114;2022-07-05T06:27:49;100257.81;;;23.12;100.00
48624;BME280;34422;45.802;16.114;2022-07-05T06:30:18;100273.03;;;23.52;98.06
48624;BME280;34422;45.802;16.114;2022-07-05T06:32:46;100263.25;;;23.79;97.65
48624;BME280;34422;45.802;16.114;2022-07-05T06:35:14;100267.81;;;24.21;93.00
48624;BME280;34422;45.802;16.114;2022-07-05T06:37:44;100260.50;;;24.11;89.83
48624;BME280;34422;45.802;16.114;2022-07-05T06:40:14;100256.50;;;24.03;88.40
48624;BME280;34422;45.802;16.114;2022-07-05T06:42:43;100264.03;;;24.63;86.33
48624;BME280;34422;45.802;16.114;2022-07-05T06:45:10;100271.66;;;24.98;86.19
48624;BME280;34422;45.802;16.114;2022-07-05T06:47:37;100260.94;;;24.51;85.47
48624;BME280;34422;45.802;16.114;2022-07-05T06:50:05;100266.94;;;24.85;84.13
48624;BME280;34422;45.802;16.114;2022-07-05T06:52:32;100272.09;;;25.91;81.08
48624;BME280;34422;45.802;16.114;2022-07-05T06:55:00;100268.41;;;25.96;80.54
48624;BME280;34422;45.802;16.114;2022-07-05T06:57:27;100262.09;;;25.81;77.71
48624;BME280;34422;45.802;16.114;2022-07-05T06:59:53;100267.09;;;25.30;80.90
48624;BME280;34422;45.802;16.114;2022-07-05T07:02:20;100265.78;;;24.59;85.02
48624;BME280;34422;45.802;16.114;2022-07-05T07:04:48;100270.47;;;24.44;87.18
48624;BME280;34422;45.802;16.114;2022-07-05T07:07:15;100275.59;;;25.47;82.54
48624;BME280;34422;45.802;16.114;2022-07-05T07:10:02;100277.59;;;26.05;78.63
48624;BME280;34422;45.802;16.114;2022-07-05T07:12:29;100279.13;;;26.33;76.22
48624;BME280;34422;45.802;16.114;2022-07-05T07:14:56;100281.50;;;26.48;75.24
48624;BME280;34422;45.802;16.114;2022-07-05T07:17:24;100275.94;;;26.04;76.98
48624;BME280;34422;45.802;16.114;2022-07-05T07:19:50;100291.06;;;26.42;77.25
48624;BME280;34422;45.802;16.114;2022-07-05T07:22:17;100296.31;;;26.75;74.76
48624;BME280;34422;45.802;16.114;2022-07-05T07:24:44;100283.47;;;26.87;74.16
48624;BME280;34422;45.802;16.114;2022-07-05T07:27:11;100291.16;;;27.39;71.86
48624;BME280;34422;45.802;16.114;2022-07-05T07:29:38;100291.47;;;27.29;73.36
48624;BME280;34422;45.802;16.114;2022-07-05T07:32:07;100295.00;;;27.77;70.03
48624;BME280;34422;45.802;16.114;2022-07-05T07:34:34;100298.44;;;27.74;67.53
48624;BME280;34422;45.802;16.114;2022-07-05T07:37:04;100293.78;;;27.52;69.49
48624;BME280;34422;45.802;16.114;2022-07-05T07:39:31;100293.06;;;27.12;69.83
48624;BME280;34422;45.802;16.114;2022-07-05T07:41:58;100286.56;;;27.25;69.92
48624;BME280;34422;45.802;16.114;2022-07-05T07:44:26;100296.06;;;27.42;68.81
48624;BME280;34422;45.802;16.114;2022-07-05T07:46:52;100286.75;;;27.38;72.40
48624;BME280;34422;45.802;16.114;2022-07-05T07:49:19;100292.22;;;27.86;67.78
48624;BME280;34422;45.802;16.114;2022-07-05T07:51:46;100291.72;;;28.27;66.39
48624;BME280;34422;45.802;16.114;2022-07-05T07:54:13;100295.34;;;28.74;64.60
48624;BME280;34422;45.802;16.114;2022-07-05T07:56:40;100292.59;;;28.83;65.88
48624;BME280;34422;45.802;16.114;2022-07-05T07:59:07;100300.41;;;28.89;62.51
48624;BME280;34422;45.802;16.114;2022-07-05T08:01:34;100294.66;;;28.94;64.15
48624;BME280;34422;45.802;16.114;2022-07-05T08:04:00;100297.63;;;28.00;64.81
48624;BME280;34422;45.802;16.114;2022-07-05T08:06:27;100293.31;;;28.45;63.63
48624;BME280;34422;45.802;16.114;2022-07-05T08:08:54;100292.06;;;28.00;64.62
48624;BME280;34422;45.802;16.114;2022-07-05T08:11:21;100290.72;;;28.06;66.55
48624;BME280;34422;45.802;16.114;2022-07-05T08:13:47;100297.56;;;28.98;62.06
48624;BME280;34422;45.802;16.114;2022-07-05T08:16:14;100285.97;;;28.96;62.20
48624;BME280;34422;45.802;16.114;2022-07-05T08:18:42;100285.69;;;29.48;61.45
48624;BME280;34422;45.802;16.114;2022-07-05T08:21:27;100294.38;;;28.79;61.91
48624;BME280;34422;45.802;16.114;2022-07-05T08:24:02;100287.88;;;29.04;62.91
48624;BME280;34422;45.802;16.114;2022-07-05T08:26:29;100289.63;;;29.47;61.09
48624;BME280;34422;45.802;16.114;2022-07-05T08:29:00;100284.88;;;29.68;59.57
48624;BME280;34422;45.802;16.114;2022-07-05T08:31:33;100288.56;;;30.01;57.57
48624;BME280;34422;45.802;16.114;2022-07-05T08:34:01;100289.22;;;29.27;59.13
48624;BME280;34422;45.802;16.114;2022-07-05T08:36:29;100286.38;;;29.45;59.49
48624;BME280;34422;45.802;16.114;2022-07-05T08:38:55;100295.13;;;30.06;57.11
48624;BME280;34422;45.802;16.114;2022-07-05T08:41:23;100296.88;;;30.88;55.16
48624;BME280;34422;45.802;16.114;2022-07-05T08:43:50;100293.13;;;30.39;54.10
48624;BME280;34422;45.802;16.114;2022-07-05T08:46:20;100291.16;;;31.09;53.89
48624;BME280;34422;45.802;16.114;2022-07-05T08:48:49;100287.59;;;29.56;58.49
48624;BME280;34422;45.802;16.114;2022-07-05T08:51:18;100288.44;;;29.98;57.04
48624;BME280;34422;45.802;16.114;2022-07-05T08:53:49;100285.00;;;30.13;56.93
48624;BME280;34422;45.802;16.114;2022-07-05T08:56:17;100286.81;;;29.17;60.51
48624;BME280;34422;45.802;16.114;2022-07-05T08:58:44;100277.91;;;30.49;56.29
48624;BME280;34422;45.802;16.114;2022-07-05T09:01:12;100282.41;;;29.66;56.90
48624;BME280;34422;45.802;16.114;2022-07-05T09:03:46;100278.44;;;29.76;56.47
48624;BME280;34422;45.802;16.114;2022-07-05T09:06:16;100285.22;;;29.87;55.67
48624;BME280;34422;45.802;16.114;2022-07-05T09:08:45;100279.25;;;28.97;59.20
48624;BME280;34422;45.802;16.114;2022-07-05T09:11:14;100276.72;;;30.04;55.99
48624;BME280;34422;45.802;16.114;2022-07-05T09:13:43;100278.06;;;29.57;58.97
48624;BME280;34422;45.802;16.114;2022-07-05T09:16:10;100277.66;;;28.70;59.63
48624;BME280;34422;45.802;16.114;2022-07-05T09:18:53;100282.25;;;28.75;61.54
48624;BME280;34422;45.802;16.114;2022-07-05T09:21:24;100280.94;;;28.00;62.87
48624;BME280;34422;45.802;16.114;2022-07-05T09:23:56;100274.53;;;27.56;65.85
48624;BME280;34422;45.802;16.114;2022-07-05T09:26:32;100277.69;;;28.79;61.40
48624;BME280;34422;45.802;16.114;2022-07-05T09:28:59;100267.09;;;28.46;61.63
48624;BME280;34422;45.802;16.114;2022-07-05T09:31:28;100278.28;;;28.84;61.90
48624;BME280;34422;45.802;16.114;2022-07-05T09:34:09;100278.66;;;28.74;60.35
48624;BME280;34422;45.802;16.114;2022-07-05T09:37:01;100266.63;;;28.44;60.89
48624;BME280;34422;45.802;16.114;2022-07-05T09:44:37;100270.31;;;28.02;65.25
48624;BME280;34422;45.802;16.114;2022-07-05T09:47:12;100275.69;;;28.24;64.62
48624;BME280;34422;45.802;16.114;2022-07-05T09:49:44;100265.06;;;28.73;63.38
48624;BME280;34422;45.802;16.114;2022-07-05T09:52:34;100273.59;;;28.68;64.09
48624;BME280;34422;45.802;16.114;2022-07-05T09:55:10;100263.56;;;29.13;62.09
48624;BME280;34422;45.802;16.114;2022-07-05T09:57:39;100267.81;;;29.19;61.63
48624;BME280;34422;45.802;16.114;2022-07-05T10:00:13;100266.84;;;29.15;61.88
48624;BME280;34422;45.802;16.114;2022-07-05T10:02:50;100265.78;;;28.99;61.67
48624;BME280;34422;45.802;16.114;2022-07-05T10:05:20;100272.59;;;28.72;63.53
48624;BME280;34422;45.802;16.114;2022-07-05T10:07:51;100273.88;;;28.75;61.88
48624;BME280;34422;45.802;16.114;2022-07-05T10:10:23;100274.38;;;27.78;65.81
48624;BME280;34422;45.802;16.114;2022-07-05T10:12:55;100271.75;;;27.90;67.50
48624;BME280;34422;45.802;16.114;2022-07-05T10:15:25;100271.78;;;27.82;67.00
48624;BME280;34422;45.802;16.114;2022-07-05T10:18:06;100258.38;;;27.58;68.11
48624;BME280;34422;45.802;16.114;2022-07-05T10:20:43;100278.84;;;27.22;70.26
48624;BME280;34422;45.802;16.114;2022-07-05T10:23:14;100282.63;;;27.27;69.12
48624;BME280;34422;45.802;16.114;2022-07-05T10:25:46;100277.88;;;27.18;69.02
48624;BME280;34422;45.802;16.114;2022-07-05T10:28:20;100282.31;;;27.28;70.23
48624;BME280;34422;45.802;16.114;2022-07-05T10:30:48;100274.63;;;27.34;69.73
48624;BME280;34422;45.802;16.114;2022-07-05T10:33:19;100278.25;;;27.43;68.91
48624;BME280;34422;45.802;16.114;2022-07-05T10:35:53;100277.00;;;27.66;69.22
48624;BME280;34422;45.802;16.114;2022-07-05T10:38:20;100270.91;;;27.55;69.82
48624;BME280;34422;45.802;16.114;2022-07-05T10:40:51;100288.59;;;27.77;67.64
48624;BME280;34422;45.802;16.114;2022-07-05T10:43:22;100284.78;;;27.38;64.64
48624;BME280;34422;45.802;16.114;2022-07-05T10:45:52;100278.56;;;27.50;65.68
48624;BME280;34422;45.802;16.114;2022-07-05T10:48:23;100276.94;;;27.49;66.33
48624;BME280;34422;45.802;16.114;2022-07-05T10:51:00;100284.53;;;27.57;67.12
48624;BME280;34422;45.802;16.114;2022-07-05T10:58:42;100276.13;;;27.40;65.50
48624;BME280;34422;45.802;16.114;2022-07-05T11:03:44;100271.91;;;27.77;59.97
48624;BME280;34422;45.802;16.114;2022-07-05T11:06:32;100270.13;;;27.89;59.82
48624;BME280;34422;45.802;16.114;2022-07-05T11:11:43;100286.38;;;27.22;62.43
48624;BME280;34422;45.802;16.114;2022-07-05T11:20:08;100278.22;;;27.25;62.60
48624;BME280;34422;45.802;16.114;2022-07-05T11:22:37;100264.84;;;27.36;62.01
48624;BME280;34422;45.802;16.114;2022-07-05T11:25:05;100261.22;;;27.36;63.01
48624;BME280;34422;45.802;16.114;2022-07-05T11:27:33;100263.72;;;27.46;63.44
48624;BME280;34422;45.802;16.114;2022-07-05T11:30:00;100265.34;;;27.55;63.08
48624;BME280;34422;45.802;16.114;2022-07-05T11:35:13;100254.44;;;27.59;63.78
48624;BME280;34422;45.802;16.114;2022-07-05T11:38:01;100241.84;;;27.79;64.81
48624;BME280;34422;45.802;16.114;2022-07-05T11:40:31;100242.31;;;27.64;65.40
48624;BME280;34422;45.802;16.114;2022-07-05T11:42:58;100248.84;;;28.11;64.28
48624;BME280;34422;45.802;16.114;2022-07-05T11:45:26;100247.28;;;28.48;62.36
48624;BME280;34422;45.802;16.114;2022-07-05T11:47:56;100240.44;;;28.92;60.38
48624;BME280;34422;45.802;16.114;2022-07-05T11:50:29;100251.72;;;28.95;57.42
48624;BME280;34422;45.802;16.114;2022-07-05T11:52:58;100243.47;;;29.28;56.17
48624;BME280;34422;45.802;16.114;2022-07-05T11:55:27;100240.69;;;28.99;56.52
48624;BME280;34422;45.802;16.114;2022-07-05T11:57:54;100246.47;;;28.47;54.32
48624;BME280;34422;45.802;16.114;2022-07-05T12:00:35;100234.97;;;28.57;54.78
48624;BME280;34422;45.802;16.114;2022-07-05T12:03:11;100233.47;;;28.69;52.12
48624;BME280;34422;45.802;16.114;2022-07-05T12:05:38;100226.69;;;28.87;52.30
48624;BME280;34422;45.802;16.114;2022-07-05T12:08:05;100220.69;;;29.26;51.92
48624;BME280;34422;45.802;16.114;2022-07-05T12:10:32;100226.19;;;29.14;51.21
48624;BME280;34422;45.802;16.114;2022-07-05T12:13:18;100219.63;;;28.89;49.24
48624;BME280;34422;45.802;16.114;2022-07-05T12:15:44;100228.19;;;28.76;49.01
48624;BME280;34422;45.802;16.114;2022-07-05T12:18:12;100225.59;;;28.79;49.70
48624;BME280;34422;45.802;16.114;2022-07-05T12:20:41;100222.69;;;28.58;48.77
48624;BME280;34422;45.802;16.114;2022-07-05T12:23:08;100225.63;;;29.00;48.64
48624;BME280;34422;45.802;16.114;2022-07-05T12:25:35;100218.16;;;28.92;49.96
48624;BME280;34422;45.802;16.114;2022-07-05T12:28:03;100231.41;;;28.95;48.21
48624;BME280;34422;45.802;16.114;2022-07-05T12:30:33;100222.22;;;28.94;49.56
48624;BME280;34422;45.802;16.114;2022-07-05T12:33:00;100221.13;;;28.87;49.61
48624;BME280;34422;45.802;16.114;2022-07-05T12:35:43;100209.69;;;28.71;51.35
48624;BME280;34422;45.802;16.114;2022-07-05T12:38:12;100215.78;;;28.64;50.27
48624;BME280;34422;45.802;16.114;2022-07-05T12:40:43;100219.91;;;28.58;50.98
48624;BME280;34422;45.802;16.114;2022-07-05T12:43:18;100215.63;;;28.70;49.22
48624;BME280;34422;45.802;16.114;2022-07-05T12:46:01;100217.00;;;28.93;50.04
48624;BME280;34422;45.802;16.114;2022-07-05T12:48:38;100211.13;;;28.86;50.04
48624;BME280;34422;45.802;16.114;2022-07-05T12:51:07;100203.13;;;28.76;50.89
48624;BME280;34422;45.802;16.114;2022-07-05T12:53:44;100204.75;;;28.77;49.70
48624;BME280;34422;45.802;16.114;2022-07-05T12:56:29;100202.75;;;28.86;50.36
48624;BME280;34422;45.802;16.114;2022-07-05T12:59:16;100194.75;;;28.84;50.63
48624;BME280;34422;45.802;16.114;2022-07-05T13:01:44;100191.38;;;28.99;48.83
48624;BME280;34422;45.802;16.114;2022-07-05T13:04:14;100188.13;;;28.59;50.08
48624;BME280;34422;45.802;16.114;2022-07-05T13:12:16;100168.91;;;28.37;50.50
48624;BME280;34422;45.802;16.114;2022-07-05T13:14:49;100164.91;;;28.55;49.56
48624;BME280;34422;45.802;16.114;2022-07-05T13:17:18;100151.59;;;28.70;47.99